createdAt,value
2023-01-25T00:01:56.115Z,25.30
2023-01-25T00:04:25.685Z,26.87
2023-01-25T00:06:55.859Z,25.37
2023-01-25T00:09:26.287Z,25.23
2023-01-25T00:11:57.989Z,25.87
2023-01-25T00:14:25.513Z,27.40
2023-01-25T00:16:55.113Z,25.87
2023-01-25T00:19:24.759Z,25.90
2023-01-25T00:21:52.153Z,25.03
2023-01-25T00:24:22.957Z,25.50
2023-01-25T00:26:52.303Z,26.43
2023-01-25T00:29:21.777Z,27.30
2023-01-25T00:31:59.085Z,25.77
2023-01-25T00:34:26.235Z,25.80
2023-01-25T00:36:57.568Z,24.57
2023-01-25T00:39:28.068Z,25.60
2023-01-25T00:41:55.914Z,25.03
2023-01-25T00:44:23.090Z,26.50
2023-01-25T00:46:52.678Z,26.70
2023-01-25T00:49:25.251Z,26.53
2023-01-25T00:51:55.934Z,29.60
2023-01-25T00:54:23.241Z,26.73
2023-01-25T00:56:55.121Z,25.60
2023-01-25T00:59:23.680Z,27.57
2023-01-25T01:01:54.476Z,25.73
2023-01-25T01:04:25.143Z,24.37
2023-01-25T01:06:57.656Z,24.70
2023-01-25T01:09:24.978Z,26.73
2023-01-25T01:11:55.247Z,27.20
2023-01-25T01:14:23.680Z,26.83
2023-01-25T01:16:50.935Z,26.73
2023-01-25T01:19:19.008Z,25.87
2023-01-25T01:21:46.265Z,27.13
2023-01-25T01:24:16.184Z,26.63
2023-01-25T01:26:43.347Z,25.77
2023-01-25T01:29:13.138Z,28.00
2023-01-25T01:31:42.457Z,28.00
2023-01-25T01:34:15.198Z,26.00
2023-01-25T01:36:47.316Z,26.80
2023-01-25T01:39:14.648Z,27.37
2023-01-25T01:41:46.725Z,26.27
2023-01-25T01:44:19.255Z,25.83
2023-01-25T01:46:57.332Z,27.40
2023-01-25T01:49:31.213Z,26.67
2023-01-25T01:52:01.165Z,27.17
2023-01-25T01:55:01.399Z,28.20
2023-01-25T01:57:55.415Z,28.90
2023-01-25T02:00:31.206Z,28.60
2023-01-25T02:03:01.397Z,29.27
2023-01-25T02:05:48.529Z,26.83
2023-01-25T02:08:19.405Z,26.67
2023-01-25T02:10:49.207Z,26.77
2023-01-25T02:13:18.678Z,27.23
2023-01-25T02:15:49.585Z,29.97
2023-01-25T02:18:19.911Z,27.17
2023-01-25T02:20:54.594Z,27.27
2023-01-25T02:23:38.684Z,25.43
2023-01-25T02:26:07.067Z,25.73
2023-01-25T02:28:43.906Z,26.93
2023-01-25T02:31:14.236Z,28.80
2023-01-25T02:33:43.889Z,28.37
2023-01-25T02:36:24.680Z,30.93
2023-01-25T02:38:54.365Z,28.80
2023-01-25T02:41:27.286Z,29.40
2023-01-25T02:43:59.659Z,27.33
2023-01-25T02:46:31.900Z,29.10
2023-01-25T02:49:03.069Z,29.30
2023-01-25T02:51:33.857Z,29.33
2023-01-25T02:54:02.648Z,29.20
2023-01-25T02:56:30.282Z,29.90
2023-01-25T02:59:05.420Z,28.23
2023-01-25T03:01:41.671Z,27.57
2023-01-25T03:04:14.368Z,28.50
2023-01-25T03:06:42.056Z,29.40
2023-01-25T03:09:12.690Z,27.83
2023-01-25T03:11:44.407Z,29.33
2023-01-25T03:14:13.735Z,28.57
2023-01-25T03:16:40.992Z,29.10
2023-01-25T03:19:11.234Z,30.13
2023-01-25T03:21:41.412Z,31.47
2023-01-25T03:24:11.510Z,30.20
2023-01-25T03:26:59.861Z,30.33
2023-01-25T03:29:29.285Z,31.27
2023-01-25T03:31:56.530Z,31.00
2023-01-25T03:34:23.685Z,31.90
2023-01-25T03:36:50.872Z,29.60
2023-01-25T03:39:18.191Z,30.93
2023-01-25T03:41:45.344Z,31.70
2023-01-25T03:44:13.141Z,31.07
2023-01-25T03:46:41.719Z,33.80
2023-01-25T03:49:11.493Z,31.27
2023-01-25T03:51:41.231Z,32.03
2023-01-25T03:54:10.506Z,31.70
2023-01-25T03:56:38.691Z,32.63
2023-01-25T03:59:08.451Z,32.80
2023-01-25T04:01:37.570Z,32.50
2023-01-25T04:04:04.742Z,34.87
2023-01-25T04:06:32.033Z,33.63
2023-01-25T04:08:59.199Z,34.53
2023-01-25T04:11:26.381Z,32.90
2023-01-25T04:13:55.702Z,33.73
2023-01-25T04:16:25.102Z,31.63
2023-01-25T04:18:52.273Z,33.77
2023-01-25T04:21:19.736Z,31.60
2023-01-25T04:23:49.135Z,31.93
2023-01-25T04:26:18.949Z,33.33
2023-01-25T04:28:48.730Z,30.73
2023-01-25T04:31:18.160Z,31.03
2023-01-25T04:33:48.661Z,32.80
2023-01-25T04:36:19.714Z,34.37
2023-01-25T04:38:51.591Z,33.83
2023-01-25T04:41:21.791Z,34.03
2023-01-25T04:43:53.338Z,36.03
2023-01-25T04:46:20.635Z,33.10
2023-01-25T04:48:47.834Z,34.57
2023-01-25T04:51:17.247Z,35.77
2023-01-25T04:53:44.553Z,35.23
2023-01-25T04:56:11.711Z,34.20
2023-01-25T04:58:43.918Z,34.07
2023-01-25T05:01:13.830Z,34.40
2023-01-25T05:03:41.036Z,35.10
2023-01-25T05:06:10.500Z,33.50
2023-01-25T05:08:37.695Z,33.93
2023-01-25T05:11:05.042Z,34.03
2023-01-25T05:13:32.239Z,33.27
2023-01-25T05:16:01.889Z,33.00
2023-01-25T05:18:35.800Z,34.13
2023-01-25T05:21:29.795Z,35.43
2023-01-25T05:23:59.158Z,34.00
2023-01-25T05:26:45.057Z,36.40
2023-01-25T05:29:14.643Z,31.20
2023-01-25T05:31:41.849Z,32.97
2023-01-25T05:34:09.686Z,32.90
2023-01-25T05:36:39.087Z,33.70
2023-01-25T05:39:09.135Z,32.03
2023-01-25T05:41:38.435Z,30.63
2023-01-25T05:44:05.836Z,32.23
2023-01-25T05:46:37.600Z,31.97
2023-01-25T05:49:10.016Z,32.20
2023-01-25T05:51:38.469Z,31.50
2023-01-25T05:54:06.645Z,31.93
2023-01-25T05:56:36.550Z,33.23
2023-01-25T05:59:05.953Z,32.07
2023-01-25T06:01:33.796Z,32.80
2023-01-25T06:04:05.902Z,32.63
2023-01-25T06:06:35.525Z,33.43
2023-01-25T06:09:02.756Z,33.43
2023-01-25T06:11:29.913Z,31.90
2023-01-25T06:13:57.405Z,32.97
2023-01-25T06:16:29.398Z,31.20
2023-01-25T06:18:56.546Z,32.87
2023-01-25T06:21:23.698Z,33.43
2023-01-25T06:23:55.435Z,33.60
2023-01-25T06:26:25.144Z,32.67
2023-01-25T06:28:56.979Z,32.87
2023-01-25T06:31:28.730Z,28.40
2023-01-25T06:33:56.028Z,31.50
2023-01-25T06:36:23.482Z,30.67
2023-01-25T06:38:52.618Z,29.57
2023-01-25T06:41:25.083Z,28.43
2023-01-25T06:43:55.835Z,30.53
2023-01-25T06:46:27.859Z,29.13
2023-01-25T06:48:59.603Z,28.83
2023-01-25T06:51:28.941Z,29.57
2023-01-25T06:54:01.955Z,30.17
2023-01-25T06:56:29.184Z,30.53
2023-01-25T06:58:56.291Z,32.17
2023-01-25T07:01:27.593Z,31.97
2023-01-25T07:03:59.678Z,28.80
2023-01-25T07:06:34.134Z,30.13
2023-01-25T07:09:11.850Z,29.43
2023-01-25T07:11:41.015Z,29.43
2023-01-25T07:14:13.056Z,30.67
2023-01-25T07:16:42.315Z,32.23
2023-01-25T07:19:14.369Z,30.60
2023-01-25T07:21:41.654Z,30.10
2023-01-25T07:24:15.573Z,29.67
2023-01-25T07:26:43.205Z,29.73
2023-01-25T07:29:16.016Z,31.63
2023-01-25T07:31:43.515Z,32.43
2023-01-25T07:34:14.430Z,30.33
2023-01-25T07:36:44.717Z,30.73
2023-01-25T07:39:12.051Z,31.20
2023-01-25T07:41:41.554Z,32.30
2023-01-25T07:44:13.461Z,31.37
2023-01-25T07:46:48.176Z,30.93
2023-01-25T07:49:17.777Z,31.87
2023-01-25T07:51:47.150Z,30.77
2023-01-25T07:54:14.441Z,31.90
2023-01-25T07:56:41.649Z,31.67
2023-01-25T07:59:11.376Z,31.13
2023-01-25T08:01:40.878Z,29.77
2023-01-25T08:04:08.860Z,32.03
2023-01-25T08:06:41.044Z,33.40
2023-01-25T08:09:17.400Z,31.93
2023-01-25T08:11:44.633Z,33.80
2023-01-25T08:14:14.287Z,34.40
2023-01-25T08:16:41.464Z,33.67
2023-01-25T08:19:11.869Z,34.20
2023-01-25T08:21:39.166Z,34.20
2023-01-25T08:24:09.652Z,36.07
2023-01-25T08:26:37.416Z,35.20
2023-01-25T08:29:06.152Z,34.53
2023-01-25T08:31:35.250Z,34.37
2023-01-25T08:34:03.144Z,33.40
2023-01-25T08:36:30.715Z,35.80
2023-01-25T08:39:02.602Z,33.73
2023-01-25T08:41:33.110Z,34.63
2023-01-25T08:44:03.544Z,36.07
2023-01-25T08:46:34.642Z,36.20
2023-01-25T08:49:04.649Z,38.80
2023-01-25T08:51:32.915Z,35.73
2023-01-25T08:54:05.510Z,36.27
2023-01-25T08:56:33.274Z,35.93
2023-01-25T08:59:06.030Z,37.63
2023-01-25T09:01:33.604Z,35.80
2023-01-25T09:04:00.925Z,35.37
2023-01-25T09:06:28.212Z,38.50
2023-01-25T09:08:59.354Z,37.47
2023-01-25T09:11:29.171Z,37.30
2023-01-25T09:14:00.424Z,35.43
2023-01-25T09:16:30.708Z,37.10
2023-01-25T09:19:00.833Z,35.73
2023-01-25T09:21:28.512Z,35.20
2023-01-25T09:24:07.529Z,37.30
2023-01-25T09:26:42.889Z,35.80
2023-01-25T09:29:12.282Z,35.00
2023-01-25T09:31:40.801Z,36.40
2023-01-25T09:34:13.815Z,36.13
2023-01-25T09:36:43.655Z,35.50
2023-01-25T09:39:14.494Z,37.13
2023-01-25T09:42:06.596Z,35.83
2023-01-25T09:45:00.886Z,36.30
2023-01-25T09:48:01.960Z,38.37
2023-01-25T09:50:48.183Z,36.07
2023-01-25T09:53:18.327Z,37.03
2023-01-25T09:55:55.926Z,36.77
2023-01-25T09:58:30.781Z,33.73
2023-01-25T10:01:33.108Z,35.70
2023-01-25T10:04:27.182Z,37.87
2023-01-25T10:07:01.806Z,36.33
2023-01-25T10:09:52.238Z,35.50
2023-01-25T10:12:24.043Z,35.03
2023-01-25T10:14:56.677Z,34.73
2023-01-25T10:17:34.989Z,35.27
2023-01-25T10:20:21.269Z,34.27
2023-01-25T10:23:01.448Z,34.53
2023-01-25T10:26:00.154Z,35.20
2023-01-25T10:28:41.270Z,36.03
2023-01-25T10:31:28.547Z,36.43
2023-01-25T10:33:59.293Z,34.83
2023-01-25T10:36:30.969Z,35.10
2023-01-25T10:39:01.101Z,37.57
2023-01-25T10:41:48.276Z,36.63
2023-01-25T10:44:24.516Z,35.30
2023-01-25T10:47:18.133Z,33.80
2023-01-25T10:49:56.433Z,36.53
2023-01-25T10:52:27.281Z,33.27
2023-01-25T10:55:20.479Z,33.90
2023-01-25T10:57:51.241Z,34.63
2023-01-25T11:00:39.671Z,33.83
2023-01-25T11:03:35.644Z,35.00
2023-01-25T11:06:03.049Z,37.40
2023-01-25T11:08:30.123Z,34.77
2023-01-25T11:10:59.067Z,34.20
2023-01-25T11:13:35.927Z,33.40
2023-01-25T11:16:04.962Z,33.53
2023-01-25T11:18:35.062Z,34.53
2023-01-25T11:21:06.525Z,34.40
2023-01-25T11:23:34.684Z,34.47
2023-01-25T11:26:19.570Z,34.53
2023-01-25T11:28:50.081Z,36.13
2023-01-25T11:31:23.622Z,34.83
2023-01-25T11:33:51.112Z,34.20
2023-01-25T11:36:30.208Z,34.83
2023-01-25T11:39:21.314Z,32.67
2023-01-25T11:42:28.772Z,35.67
2023-01-25T11:45:01.452Z,34.07
2023-01-25T11:47:46.655Z,34.20
2023-01-25T11:50:36.265Z,35.00
2023-01-25T11:53:28.345Z,35.37
2023-01-25T11:56:10.622Z,36.80
2023-01-25T11:59:13.267Z,34.80
2023-01-25T12:02:21.588Z,34.33
2023-01-25T12:05:21.769Z,35.87
2023-01-25T12:08:10.432Z,36.20
2023-01-25T12:10:47.252Z,35.33
2023-01-25T12:13:34.984Z,35.93
2023-01-25T12:16:02.151Z,38.40
2023-01-25T12:18:56.041Z,36.53
2023-01-25T12:21:51.624Z,37.63
2023-01-25T12:24:51.755Z,37.33
2023-01-25T12:27:46.815Z,38.70
2023-01-25T12:30:30.064Z,41.13
2023-01-25T12:33:14.261Z,39.30
2023-01-25T12:35:44.464Z,40.07
2023-01-25T12:38:20.322Z,40.40
2023-01-25T12:41:16.360Z,41.10
2023-01-25T12:43:57.712Z,39.70
2023-01-25T12:46:46.569Z,40.43
2023-01-25T12:49:28.534Z,37.90
2023-01-25T12:51:58.971Z,37.13
2023-01-25T12:54:38.181Z,38.27
2023-01-25T12:57:15.788Z,39.10
2023-01-25T12:59:57.248Z,38.83
2023-01-25T13:02:27.664Z,39.63
2023-01-25T13:05:03.063Z,36.93
2023-01-25T13:07:42.888Z,38.87
2023-01-25T13:10:21.778Z,38.20
2023-01-25T13:13:05.444Z,39.50
2023-01-25T13:15:47.107Z,39.00
2023-01-25T13:18:36.640Z,38.23
2023-01-25T13:21:11.619Z,38.93
2023-01-25T13:23:47.935Z,36.40
2023-01-25T13:26:24.249Z,39.90
2023-01-25T13:28:53.351Z,38.03
2023-01-25T13:31:53.045Z,35.63
2023-01-25T13:34:39.237Z,34.13
2023-01-25T13:37:35.799Z,36.57
2023-01-25T13:40:26.517Z,38.97
2023-01-25T13:43:01.826Z,35.87
2023-01-25T13:45:36.137Z,36.33
2023-01-25T13:48:11.562Z,34.33
2023-01-25T13:50:45.534Z,34.67
2023-01-25T13:53:15.789Z,35.70
2023-01-25T13:55:51.914Z,38.70
2023-01-25T13:58:26.523Z,37.53
2023-01-25T14:01:04.317Z,35.43
2023-01-25T14:03:35.732Z,34.53
2023-01-25T14:06:07.721Z,33.63
2023-01-25T14:08:34.964Z,33.47
2023-01-25T14:11:05.401Z,33.03
2023-01-25T14:13:32.544Z,34.27
2023-01-25T14:16:01.895Z,34.57
2023-01-25T14:18:34.615Z,35.43
2023-01-25T14:21:21.455Z,34.30
2023-01-25T14:23:49.632Z,34.97
2023-01-25T14:26:27.926Z,37.67
2023-01-25T14:29:01.947Z,35.40
2023-01-25T14:31:36.491Z,35.07
2023-01-25T14:34:08.577Z,35.83
2023-01-25T14:36:38.023Z,34.93
2023-01-25T14:39:24.998Z,35.83
2023-01-25T14:42:00.926Z,37.53
2023-01-25T14:44:29.937Z,36.43
2023-01-25T14:47:32.380Z,37.37
2023-01-25T14:50:32.894Z,36.70
2023-01-25T14:53:29.390Z,36.33
2023-01-25T14:55:56.605Z,37.97
2023-01-25T14:58:25.384Z,39.43
2023-01-25T15:01:01.462Z,37.43
2023-01-25T15:03:33.978Z,36.73
2023-01-25T15:06:05.202Z,36.10
2023-01-25T15:08:35.132Z,34.90
2023-01-25T15:11:34.686Z,35.90
2023-01-25T15:14:07.481Z,36.77
2023-01-25T15:16:37.164Z,35.77
2023-01-25T15:19:04.377Z,38.27
2023-01-25T15:21:33.221Z,37.53
2023-01-25T15:24:08.458Z,39.50
2023-01-25T15:26:37.880Z,39.20
2023-01-25T15:29:27.143Z,39.30
2023-01-25T15:31:56.144Z,41.73
2023-01-25T15:34:32.488Z,40.93
2023-01-25T15:36:59.741Z,40.17
2023-01-25T15:39:29.974Z,41.37
2023-01-25T15:41:57.223Z,41.30
2023-01-25T15:44:28.430Z,39.50
2023-01-25T15:46:58.029Z,39.87
2023-01-25T15:49:32.776Z,39.87
2023-01-25T15:52:02.113Z,39.53
2023-01-25T15:54:31.415Z,39.63
2023-01-25T15:57:01.056Z,42.17
2023-01-25T15:59:28.733Z,39.73
2023-01-25T16:01:58.162Z,41.93
2023-01-25T16:04:26.301Z,44.03
2023-01-25T16:06:54.832Z,41.93
2023-01-25T16:09:29.471Z,43.43
2023-01-25T16:12:01.541Z,40.17
2023-01-25T16:14:33.723Z,41.30
2023-01-25T16:17:05.783Z,43.83
2023-01-25T16:19:35.345Z,43.37
2023-01-25T16:22:02.496Z,43.60
2023-01-25T16:24:30.068Z,42.30
2023-01-25T16:27:03.530Z,44.97
2023-01-25T16:29:33.683Z,42.83
2023-01-25T16:32:03.515Z,43.30
2023-01-25T16:34:33.628Z,43.67
2023-01-25T16:37:01.753Z,44.13
2023-01-25T16:39:32.241Z,42.00
2023-01-25T16:42:01.680Z,46.90
2023-01-25T16:44:30.878Z,45.40
2023-01-25T16:46:58.157Z,45.13
2023-01-25T16:49:27.199Z,46.23
2023-01-25T16:52:03.099Z,44.73
2023-01-25T16:54:31.339Z,45.27
2023-01-25T16:57:01.751Z,44.07
2023-01-25T16:59:33.948Z,42.90
2023-01-25T17:02:03.297Z,45.37
2023-01-25T17:04:33.311Z,42.83
2023-01-25T17:07:02.831Z,41.60
2023-01-25T17:09:37.941Z,43.63
2023-01-25T17:12:05.619Z,42.07
2023-01-25T17:14:38.830Z,42.33
2023-01-25T17:17:05.934Z,41.33
2023-01-25T17:19:35.567Z,42.40
2023-01-25T17:22:04.869Z,42.10
2023-01-25T17:24:36.577Z,42.90
2023-01-25T17:27:08.261Z,42.53
2023-01-25T17:29:35.396Z,45.97
2023-01-25T17:32:04.763Z,42.50
2023-01-25T17:34:36.685Z,41.77
2023-01-25T17:37:08.272Z,43.37
2023-01-25T17:39:35.491Z,43.90
2023-01-25T17:42:06.952Z,41.60
2023-01-25T17:44:36.582Z,41.30
2023-01-25T17:47:04.315Z,45.00
2023-01-25T17:49:31.783Z,43.00
2023-01-25T17:51:58.969Z,42.67
2023-01-25T17:54:28.701Z,41.13
2023-01-25T17:56:58.323Z,43.27
2023-01-25T17:59:25.497Z,45.43
2023-01-25T18:01:57.898Z,43.67
2023-01-25T18:04:27.158Z,44.10
2023-01-25T18:06:54.351Z,42.60
2023-01-25T18:09:21.550Z,43.30
2023-01-25T18:11:48.801Z,44.53
2023-01-25T18:14:16.864Z,44.27
2023-01-25T18:16:44.818Z,43.63
2023-01-25T18:19:14.953Z,42.70
2023-01-25T18:21:44.552Z,44.57
2023-01-25T18:24:33.626Z,47.10
2023-01-25T18:27:11.209Z,43.37
2023-01-25T18:29:52.813Z,45.73
2023-01-25T18:32:20.141Z,42.83
2023-01-25T18:34:48.276Z,42.07
2023-01-25T18:37:21.022Z,42.20
2023-01-25T18:39:52.646Z,41.50
2023-01-25T18:42:23.413Z,43.57
2023-01-25T18:44:52.697Z,41.93
2023-01-25T18:47:22.082Z,42.10
2023-01-25T18:49:50.744Z,43.73
2023-01-25T18:52:19.762Z,44.13
2023-01-25T18:54:49.434Z,42.43
2023-01-25T18:57:19.397Z,42.90
2023-01-25T18:59:46.619Z,41.90
2023-01-25T19:02:17.764Z,42.50
2023-01-25T19:04:47.347Z,39.73
2023-01-25T19:07:14.844Z,39.80
2023-01-25T19:09:44.907Z,36.97
2023-01-25T19:12:12.117Z,40.23
2023-01-25T19:14:43.803Z,39.73
2023-01-25T19:17:10.993Z,40.93
2023-01-25T19:19:38.241Z,39.63
2023-01-25T19:22:10.206Z,39.63
2023-01-25T19:24:37.470Z,38.67
2023-01-25T19:27:05.439Z,38.37
2023-01-25T19:29:36.787Z,40.00
2023-01-25T19:32:10.849Z,40.60
2023-01-25T19:34:38.772Z,41.00
2023-01-25T19:37:08.513Z,39.07
2023-01-25T19:39:38.129Z,40.87
2023-01-25T19:42:08.019Z,43.57
2023-01-25T19:44:35.264Z,40.77
2023-01-25T19:47:03.161Z,42.17
2023-01-25T19:49:35.560Z,40.27
2023-01-25T19:52:02.747Z,41.17
2023-01-25T19:54:31.475Z,39.50
2023-01-25T19:57:00.718Z,39.87
2023-01-25T19:59:29.027Z,39.93
2023-01-25T20:01:56.413Z,36.80
2023-01-25T20:04:26.627Z,36.87
2023-01-25T20:06:59.046Z,39.33
2023-01-25T20:09:28.160Z,37.80
2023-01-25T20:11:58.286Z,37.60
2023-01-25T20:14:27.886Z,36.90
2023-01-25T20:16:55.125Z,37.90
2023-01-25T20:19:22.465Z,37.87
2023-01-25T20:21:54.442Z,35.53
2023-01-25T20:24:22.083Z,39.53
2023-01-25T20:26:52.435Z,40.53
2023-01-25T20:29:20.076Z,37.77
2023-01-25T20:31:49.733Z,40.37
2023-01-25T20:34:23.826Z,37.60
2023-01-25T20:36:55.415Z,40.30
2023-01-25T20:39:23.024Z,39.63
2023-01-25T20:41:53.468Z,39.10
2023-01-25T20:44:23.410Z,36.87
2023-01-25T20:46:54.508Z,34.27
2023-01-25T20:49:21.990Z,34.77
2023-01-25T20:51:49.235Z,35.33
2023-01-25T20:54:20.655Z,39.00
2023-01-25T20:56:50.707Z,33.57
2023-01-25T20:59:19.268Z,35.07
2023-01-25T21:01:46.848Z,36.73
2023-01-25T21:04:16.557Z,34.87
2023-01-25T21:06:48.565Z,35.30
2023-01-25T21:09:17.821Z,33.83
2023-01-25T21:11:47.360Z,34.83
2023-01-25T21:14:14.635Z,33.73
2023-01-25T21:16:44.403Z,33.50
2023-01-25T21:19:11.632Z,35.07
2023-01-25T21:21:41.015Z,36.33
2023-01-25T21:24:09.441Z,35.13
2023-01-25T21:26:38.262Z,37.73
2023-01-25T21:29:12.717Z,37.13
2023-01-25T21:31:45.358Z,35.90
2023-01-25T21:34:15.236Z,37.47
2023-01-25T21:36:44.861Z,34.70
2023-01-25T21:39:14.258Z,35.60
2023-01-25T21:41:46.246Z,35.80
2023-01-25T21:44:37.093Z,34.57
2023-01-25T21:47:29.939Z,36.03
2023-01-25T21:50:12.751Z,37.53
2023-01-25T21:52:42.406Z,36.87
2023-01-25T21:55:14.226Z,38.37
2023-01-25T21:57:46.925Z,37.80
2023-01-25T22:00:17.269Z,38.83
2023-01-25T22:02:46.975Z,37.33
2023-01-25T22:05:16.444Z,37.70
2023-01-25T22:07:45.868Z,38.23
2023-01-25T22:10:15.521Z,39.37
2023-01-25T22:12:42.675Z,35.67
2023-01-25T22:15:14.541Z,37.60
2023-01-25T22:17:44.242Z,36.97
2023-01-25T22:20:12.133Z,38.70
2023-01-25T22:22:39.519Z,37.33
2023-01-25T22:25:12.063Z,37.53
2023-01-25T22:27:52.860Z,37.80
2023-01-25T22:30:25.180Z,40.03
2023-01-25T22:32:52.303Z,39.53
2023-01-25T22:35:19.437Z,37.93
2023-01-25T22:37:46.573Z,38.70
2023-01-25T22:40:16.244Z,40.30
2023-01-25T22:42:45.487Z,39.23
2023-01-25T22:45:12.679Z,37.93
2023-01-25T22:47:43.465Z,40.17
2023-01-25T22:50:11.427Z,38.90
2023-01-25T22:52:38.802Z,38.60
2023-01-25T22:55:08.539Z,38.00
2023-01-25T22:57:35.707Z,39.97
2023-01-25T23:00:03.147Z,38.77
2023-01-25T23:02:33.714Z,39.23
2023-01-25T23:05:00.836Z,37.63
2023-01-25T23:07:30.057Z,36.80
2023-01-25T23:09:57.242Z,36.47
2023-01-25T23:12:27.402Z,37.97
2023-01-25T23:15:02.636Z,39.93
2023-01-25T23:17:50.646Z,39.03
2023-01-25T23:20:22.380Z,39.70
2023-01-25T23:22:51.259Z,38.43
2023-01-25T23:25:18.427Z,39.17
2023-01-25T23:27:47.895Z,39.07
2023-01-25T23:30:15.611Z,40.60
2023-01-25T23:32:49.768Z,40.60
2023-01-25T23:35:21.162Z,40.50
2023-01-25T23:37:50.757Z,38.63
2023-01-25T23:40:18.040Z,39.07
2023-01-25T23:42:45.158Z,35.77
2023-01-25T23:45:14.576Z,35.03
2023-01-25T23:47:45.082Z,37.13
2023-01-25T23:50:12.603Z,36.97
2023-01-25T23:52:42.369Z,35.87
2023-01-25T23:55:12.223Z,36.20
2023-01-25T23:57:39.458Z,36.97
